createdAt,value
2018-04-10T00:00:33.015Z,57.98
2018-04-10T00:03:00.641Z,58.34
2018-04-10T00:05:28.381Z,57.99
2018-04-10T00:07:56.012Z,58.31
2018-04-10T00:10:23.634Z,58.28
2018-04-10T00:12:51.283Z,58.08
2018-04-10T00:15:18.847Z,58.14
2018-04-10T00:17:46.555Z,57.95
2018-04-10T00:20:14.185Z,57.87
2018-04-10T00:22:41.765Z,58.28
2018-04-10T00:25:10.468Z,58.07
2018-04-10T00:27:38.044Z,58.30
2018-04-10T00:30:05.622Z,58.36
2018-04-10T00:32:33.240Z,58.41
2018-04-10T00:35:00.813Z,58.94
2018-04-10T00:37:28.423Z,58.14
2018-04-10T00:39:56.066Z,58.89
2018-04-10T00:42:23.631Z,58.67
2018-04-10T00:44:51.257Z,58.67
2018-04-10T00:47:18.869Z,59.11
2018-04-10T00:49:46.429Z,59.51
2018-04-10T00:52:14.001Z,58.98
2018-04-10T00:54:41.781Z,59.21
2018-04-10T00:57:09.357Z,60.34
2018-04-10T00:59:36.996Z,60.03
2018-04-10T01:02:04.792Z,60.50
2018-04-10T01:04:32.371Z,60.96
2018-04-10T01:07:00.178Z,61.62
2018-04-10T01:09:27.789Z,61.86
2018-04-10T01:11:55.355Z,61.97
2018-04-10T01:14:22.934Z,62.07
2018-04-10T01:16:50.551Z,62.62
2018-04-10T01:19:18.137Z,62.21
2018-04-10T01:21:45.707Z,62.25
2018-04-10T01:24:13.378Z,62.37
2018-04-10T01:26:41.005Z,62.86
2018-04-10T01:29:08.573Z,63.50
2018-04-10T01:31:36.207Z,62.58
2018-04-10T01:34:03.859Z,62.20
2018-04-10T01:36:31.483Z,63.02
2018-04-10T01:38:59.180Z,62.45
2018-04-10T01:41:26.744Z,62.35
2018-04-10T01:43:54.322Z,62.43
2018-04-10T01:46:22.113Z,62.66
2018-04-10T01:48:49.676Z,62.50
2018-04-10T01:51:17.302Z,62.74
2018-04-10T01:53:45.021Z,62.94
2018-04-10T01:56:12.663Z,62.70
2018-04-10T01:58:40.243Z,62.97
2018-04-10T02:01:08.036Z,63.20
2018-04-10T02:03:35.606Z,63.27
2018-04-10T02:06:03.253Z,63.38
2018-04-10T02:08:31.192Z,63.81
2018-04-10T02:10:58.855Z,63.75
2018-04-10T02:13:26.443Z,64.03
2018-04-10T02:15:54.175Z,64.43
2018-04-10T02:18:21.749Z,64.25
2018-04-10T02:20:49.351Z,64.25
2018-04-10T02:23:17.040Z,64.53
2018-04-10T02:25:44.613Z,64.57
2018-04-10T02:28:12.268Z,65.47
2018-04-10T02:30:39.891Z,65.63
2018-04-10T02:33:07.512Z,65.40
2018-04-10T02:35:35.105Z,65.32
2018-04-10T02:38:02.756Z,65.64
2018-04-10T02:40:30.920Z,65.88
2018-04-10T02:42:58.557Z,65.78
2018-04-10T02:45:26.293Z,66.07
2018-04-10T02:47:53.866Z,66.33
2018-04-10T02:50:21.442Z,66.34
2018-04-10T02:52:49.213Z,66.58
2018-04-10T02:55:16.786Z,66.86
2018-04-10T02:57:44.435Z,67.02
2018-04-10T03:00:12.123Z,67.33
2018-04-10T03:02:39.792Z,67.31
2018-04-10T03:05:07.433Z,66.92
2018-04-10T03:07:35.045Z,67.05
2018-04-10T03:10:02.747Z,67.32
2018-04-10T03:12:30.318Z,67.86
2018-04-10T03:14:57.997Z,67.76
2018-04-10T03:17:25.573Z,67.88
2018-04-10T03:19:53.149Z,67.89
2018-04-10T03:22:20.870Z,68.16
2018-04-10T03:24:48.438Z,68.36
2018-04-10T03:27:16.100Z,68.46
2018-04-10T03:29:43.868Z,68.68
2018-04-10T03:32:11.500Z,68.99
2018-04-10T03:34:39.110Z,68.80
2018-04-10T03:37:06.731Z,69.12
2018-04-10T03:39:34.389Z,68.84
2018-04-10T03:42:02.032Z,68.36
2018-04-10T03:44:29.702Z,68.07
2018-04-10T03:46:57.281Z,68.25
2018-04-10T03:49:24.906Z,68.53
2018-04-10T03:51:52.745Z,68.21
2018-04-10T03:54:20.328Z,68.30
2018-04-10T03:56:47.899Z,68.56
2018-04-10T03:59:15.567Z,68.50
2018-04-10T04:01:43.146Z,68.39
2018-04-10T04:04:10.736Z,68.44
2018-04-10T04:06:38.363Z,68.30
2018-04-10T04:09:06.880Z,68.25
2018-04-10T04:11:34.611Z,68.68
2018-04-10T04:14:02.268Z,68.76
2018-04-10T04:16:41.690Z,68.49
2018-04-10T04:19:21.124Z,68.76
2018-04-10T04:22:07.256Z,68.11
2018-04-10T04:24:34.872Z,67.97
2018-04-10T04:27:02.456Z,67.65
2018-04-10T04:29:30.037Z,66.78
2018-04-10T04:31:57.840Z,65.41
2018-04-10T04:34:25.481Z,64.00
2018-04-10T04:36:53.141Z,63.84
2018-04-10T04:39:20.929Z,63.48
2018-04-10T04:41:48.558Z,63.09
2018-04-10T04:44:16.142Z,62.57
2018-04-10T04:46:43.760Z,62.47
2018-04-10T04:49:11.344Z,62.26
2018-04-10T04:51:39.496Z,61.79
2018-04-10T04:54:07.179Z,62.33
2018-04-10T04:56:34.772Z,61.74
2018-04-10T04:59:02.400Z,61.16
2018-04-10T05:01:30.204Z,61.03
2018-04-10T05:03:57.822Z,60.87
2018-04-10T05:06:25.451Z,60.37
2018-04-10T05:08:53.099Z,60.12
2018-04-10T05:11:20.731Z,59.55
2018-04-10T05:13:48.448Z,58.59
2018-04-10T05:16:16.075Z,57.41
2018-04-10T05:18:43.674Z,54.96
2018-04-10T05:21:11.313Z,51.94
2018-04-10T05:23:38.937Z,51.46
2018-04-10T05:26:06.536Z,46.77
2018-04-10T05:28:34.125Z,43.83
2018-04-10T05:31:01.797Z,40.59
2018-04-10T05:33:29.439Z,39.84
2018-04-10T05:35:57.031Z,38.52
2018-04-10T05:38:24.660Z,38.85
2018-04-10T05:40:52.248Z,36.63
2018-04-10T05:43:19.841Z,36.32
2018-04-10T05:45:47.582Z,35.15
2018-04-10T05:48:15.692Z,34.40
2018-04-10T05:50:43.279Z,34.11
2018-04-10T05:53:10.997Z,33.74
2018-04-10T05:55:38.582Z,34.04
2018-04-10T05:58:06.251Z,36.47
2018-04-10T06:00:33.947Z,37.25
2018-04-10T06:03:01.523Z,37.64
2018-04-10T06:05:29.184Z,37.34
2018-04-10T06:07:56.933Z,36.15
2018-04-10T06:10:24.504Z,36.75
2018-04-10T06:12:52.124Z,37.57
2018-04-10T06:15:19.996Z,35.09
2018-04-10T06:17:47.569Z,37.77
2018-04-10T06:20:15.237Z,35.83
2018-04-10T06:22:43.680Z,36.82
2018-04-10T06:25:11.254Z,35.16
2018-04-10T06:27:38.837Z,39.11
2018-04-10T06:30:06.468Z,37.26
2018-04-10T06:32:34.052Z,36.77
2018-04-10T06:35:01.655Z,36.96
2018-04-10T06:37:29.311Z,36.83
2018-04-10T06:39:56.959Z,36.40
2018-04-10T06:42:24.572Z,35.16
2018-04-10T06:44:53.266Z,35.54
2018-04-10T06:47:20.918Z,36.39
2018-04-10T06:49:48.501Z,35.99
2018-04-10T06:52:16.133Z,36.04
2018-04-10T06:54:43.773Z,37.63
2018-04-10T06:57:11.355Z,38.48
2018-04-10T06:59:39.063Z,38.07
2018-04-10T07:02:06.711Z,38.16
2018-04-10T07:04:34.313Z,38.43
2018-04-10T07:07:02.835Z,39.75
2018-04-10T07:09:31.190Z,39.91
2018-04-10T07:11:58.776Z,42.56
2018-04-10T07:14:26.395Z,39.42
2018-04-10T07:16:54.113Z,38.96
2018-04-10T07:19:21.703Z,41.23
2018-04-10T07:21:50.054Z,41.95
2018-04-10T07:24:17.637Z,42.18
2018-04-10T07:26:45.224Z,42.04
2018-04-10T07:29:12.842Z,41.62
2018-04-10T07:31:40.464Z,42.40
2018-04-10T07:34:08.027Z,42.25
2018-04-10T07:36:35.668Z,42.32
2018-04-10T07:39:03.335Z,41.30
2018-04-10T07:41:30.972Z,40.67
2018-04-10T07:43:58.597Z,43.45
2018-04-10T07:46:26.240Z,43.77
2018-04-10T07:48:53.813Z,43.69
2018-04-10T07:51:21.517Z,40.79
2018-04-10T07:53:49.161Z,44.62
2018-04-10T07:56:16.737Z,41.89
2018-04-10T07:58:44.359Z,41.75
2018-04-10T08:01:12.020Z,43.64
2018-04-10T08:03:39.654Z,40.54
2018-04-10T08:06:07.421Z,40.76
2018-04-10T08:08:35.193Z,41.03
2018-04-10T08:11:02.782Z,39.30
2018-04-10T08:13:30.497Z,41.05
2018-04-10T08:15:58.099Z,39.51
2018-04-10T08:18:25.875Z,40.11
2018-04-10T08:20:53.644Z,38.07
2018-04-10T08:23:21.338Z,41.23
2018-04-10T08:25:48.912Z,43.79
2018-04-10T08:28:16.591Z,39.04
2018-04-10T08:30:44.156Z,40.45
2018-04-10T08:33:11.758Z,39.58
2018-04-10T08:35:39.375Z,41.52
2018-04-10T08:38:06.952Z,43.30
2018-04-10T08:40:34.531Z,41.87
2018-04-10T08:43:02.183Z,42.04
2018-04-10T08:45:29.771Z,40.53
2018-04-10T08:47:57.421Z,43.20
2018-04-10T08:50:25.474Z,39.54
2018-04-10T08:52:53.062Z,43.95
2018-04-10T08:55:20.628Z,41.87
2018-04-10T08:57:48.251Z,40.55
2018-04-10T09:00:15.812Z,40.59
2018-04-10T09:02:43.389Z,41.71
2018-04-10T09:05:11.079Z,40.92
2018-04-10T09:07:38.651Z,38.46
2018-04-10T09:10:06.290Z,40.83
2018-04-10T09:12:34.065Z,39.53
2018-04-10T09:15:01.637Z,38.94
2018-04-10T09:17:29.231Z,38.21
2018-04-10T09:19:56.972Z,39.68
2018-04-10T09:22:24.548Z,37.37
2018-04-10T09:24:52.180Z,40.38
2018-04-10T09:27:20.636Z,40.98
2018-04-10T09:29:48.215Z,40.33
2018-04-10T09:32:15.780Z,39.19
2018-04-10T09:34:43.446Z,38.33
2018-04-10T09:37:11.096Z,40.45
2018-04-10T09:39:38.674Z,41.22
2018-04-10T09:42:06.301Z,39.75
2018-04-10T09:44:33.872Z,39.42
2018-04-10T09:47:01.513Z,38.69
2018-04-10T09:49:29.136Z,39.04
2018-04-10T09:51:56.709Z,38.95
2018-04-10T09:54:24.357Z,39.25
2018-04-10T09:56:51.989Z,38.01
2018-04-10T09:59:19.625Z,38.54
2018-04-10T10:01:47.196Z,40.00
2018-04-10T10:04:14.832Z,38.82
2018-04-10T10:06:42.457Z,37.25
2018-04-10T10:09:10.187Z,35.27
2018-04-10T10:11:37.881Z,40.10
2018-04-10T10:14:05.467Z,36.70
2018-04-10T10:16:33.047Z,37.48
2018-04-10T10:19:00.770Z,38.69
2018-04-10T10:21:28.498Z,37.29
2018-04-10T10:23:56.131Z,36.26
2018-04-10T10:26:23.752Z,35.60
2018-04-10T10:28:51.447Z,36.54
2018-04-10T10:31:19.030Z,37.46
2018-04-10T10:33:46.802Z,33.44
2018-04-10T10:36:14.447Z,34.31
2018-04-10T10:38:42.023Z,33.75
2018-04-10T10:41:09.650Z,34.70
2018-04-10T10:43:37.276Z,33.50
2018-04-10T10:46:04.884Z,32.62
2018-04-10T10:48:32.528Z,32.15
2018-04-10T10:51:00.178Z,34.13
2018-04-10T10:53:27.865Z,34.84
2018-04-10T10:55:55.480Z,37.19
2018-04-10T10:58:23.048Z,35.28
2018-04-10T11:00:50.678Z,35.15
2018-04-10T11:03:18.377Z,33.96
2018-04-10T11:05:45.975Z,34.30
2018-04-10T11:08:13.597Z,36.28
2018-04-10T11:10:41.292Z,32.83
2018-04-10T11:13:08.959Z,35.61
2018-04-10T11:15:36.613Z,33.57
2018-04-10T11:18:04.237Z,36.23
2018-04-10T11:20:31.869Z,36.11
2018-04-10T11:23:00.401Z,35.26
2018-04-10T11:25:28.027Z,33.50
2018-04-10T11:27:55.660Z,33.95
2018-04-10T11:30:23.228Z,34.95
2018-04-10T11:32:50.851Z,34.90
2018-04-10T11:35:18.432Z,33.72
2018-04-10T11:37:47.513Z,33.97
2018-04-10T11:40:15.276Z,33.04
2018-04-10T11:42:43.601Z,34.55
2018-04-10T11:45:11.979Z,35.10
2018-04-10T11:47:39.754Z,30.62
2018-04-10T11:50:07.395Z,31.63
2018-04-10T11:52:35.788Z,33.45
2018-04-10T11:55:04.223Z,32.51
2018-04-10T11:57:31.805Z,33.23
2018-04-10T11:59:59.446Z,33.84
2018-04-10T12:02:27.077Z,33.36
2018-04-10T12:04:54.708Z,31.73
2018-04-10T12:07:22.347Z,33.23
2018-04-10T12:09:50.060Z,32.82
2018-04-10T12:12:18.136Z,31.54
2018-04-10T12:14:45.706Z,32.51
2018-04-10T12:17:13.324Z,32.63
2018-04-10T12:19:40.888Z,32.25
2018-04-10T12:22:08.540Z,31.49
2018-04-10T12:24:36.556Z,32.59
2018-04-10T12:27:04.195Z,31.31
2018-04-10T12:29:31.832Z,30.24
2018-04-10T12:31:59.509Z,29.71
2018-04-10T12:34:27.113Z,27.35
2018-04-10T12:36:54.687Z,26.46
2018-04-10T12:39:22.342Z,26.70
2018-04-10T12:41:49.991Z,26.79
2018-04-10T12:44:18.351Z,28.97
2018-04-10T12:46:46.704Z,30.30
2018-04-10T12:49:14.342Z,30.16
2018-04-10T12:51:42.014Z,31.60
2018-04-10T12:54:09.720Z,31.92
2018-04-10T12:56:37.312Z,31.42
2018-04-10T12:59:04.909Z,30.90
2018-04-10T13:01:32.564Z,32.00
2018-04-10T13:04:00.133Z,32.95
2018-04-10T13:06:27.717Z,33.74
2018-04-10T13:08:55.397Z,33.10
2018-04-10T13:11:22.972Z,34.18
2018-04-10T13:13:50.718Z,34.58
2018-04-10T13:16:18.433Z,33.82
2018-04-10T13:18:46.012Z,33.46
2018-04-10T13:21:13.576Z,35.78
2018-04-10T13:23:41.212Z,35.17
2018-04-10T13:26:08.881Z,34.58
2018-04-10T13:28:36.514Z,33.26
2018-04-10T13:31:04.200Z,33.48
2018-04-10T13:33:31.788Z,32.69
2018-04-10T13:35:59.355Z,33.70
2018-04-10T13:38:27.045Z,33.14
2018-04-10T13:40:54.716Z,34.71
2018-04-10T13:43:22.332Z,34.26
2018-04-10T13:45:49.953Z,33.59
2018-04-10T13:48:17.589Z,33.64
2018-04-10T13:50:45.167Z,33.44
2018-04-10T13:53:12.876Z,33.00
2018-04-10T13:55:40.444Z,33.18
2018-04-10T13:58:08.025Z,33.44
2018-04-10T14:00:35.676Z,32.92
2018-04-10T14:03:03.249Z,32.93
2018-04-10T14:05:31.235Z,33.42
2018-04-10T14:08:00.487Z,34.02
2018-04-10T14:10:28.599Z,33.54
2018-04-10T14:12:56.250Z,34.71
2018-04-10T14:15:24.036Z,34.47
2018-04-10T14:17:51.676Z,34.40
2018-04-10T14:20:19.248Z,34.29
2018-04-10T14:22:47.686Z,34.79
2018-04-10T14:25:15.300Z,35.42
2018-04-10T14:27:42.950Z,34.49
2018-04-10T14:30:10.665Z,34.85
2018-04-10T14:32:38.248Z,35.11
2018-04-10T14:35:06.824Z,35.39
2018-04-10T14:37:34.534Z,35.74
2018-04-10T14:40:02.168Z,36.02
2018-04-10T14:42:29.732Z,35.57
2018-04-10T14:44:57.414Z,35.67
2018-04-10T14:47:25.045Z,34.63
2018-04-10T14:49:52.642Z,34.06
2018-04-10T14:52:20.304Z,34.58
2018-04-10T14:54:47.932Z,34.05
2018-04-10T14:57:15.522Z,34.54
2018-04-10T14:59:43.135Z,35.23
2018-04-10T15:02:10.712Z,35.52
2018-04-10T15:04:38.372Z,35.28
2018-04-10T15:07:06.088Z,35.70
2018-04-10T15:09:33.661Z,35.74
2018-04-10T15:12:01.231Z,35.52
2018-04-10T15:14:28.868Z,35.02
2018-04-10T15:16:56.483Z,35.94
2018-04-10T15:19:24.084Z,35.63
2018-04-10T15:21:51.705Z,35.61
2018-04-10T15:24:19.271Z,35.46
2018-04-10T15:26:46.832Z,35.50
2018-04-10T15:29:14.608Z,35.82
2018-04-10T15:31:42.353Z,35.70
2018-04-10T15:34:10.013Z,35.63
2018-04-10T15:36:37.788Z,35.81
2018-04-10T15:39:06.293Z,36.30
2018-04-10T15:41:33.932Z,36.93
2018-04-10T15:44:01.676Z,36.71
2018-04-10T15:46:29.248Z,36.86
2018-04-10T15:48:56.816Z,36.85
2018-04-10T15:51:24.456Z,37.51
2018-04-10T15:53:52.093Z,38.10
2018-04-10T15:56:19.736Z,38.38
2018-04-10T15:58:47.425Z,38.40
2018-04-10T16:01:15.003Z,38.35
2018-04-10T16:03:42.637Z,39.30
2018-04-10T16:06:10.263Z,39.20
2018-04-10T16:08:37.897Z,39.21
2018-04-10T16:11:06.413Z,39.77
2018-04-10T16:13:35.058Z,39.87
2018-04-10T16:16:02.642Z,40.42
2018-04-10T16:18:30.329Z,40.71
2018-04-10T16:20:58.001Z,40.50
2018-04-10T16:23:25.642Z,41.46
2018-04-10T16:25:53.212Z,40.92
2018-04-10T16:28:20.839Z,41.67
2018-04-10T16:30:48.641Z,41.68
2018-04-10T16:33:16.284Z,41.51
2018-04-10T16:35:44.861Z,41.81
2018-04-10T16:38:12.429Z,42.31
2018-04-10T16:40:40.000Z,43.11
2018-04-10T16:43:07.623Z,43.28
2018-04-10T16:45:35.253Z,43.71
2018-04-10T16:48:02.824Z,43.83
2018-04-10T16:50:30.552Z,44.93
2018-04-10T16:52:58.174Z,45.48
2018-04-10T16:55:25.775Z,46.07
2018-04-10T16:57:53.433Z,45.57
2018-04-10T17:00:21.072Z,45.83
2018-04-10T17:02:48.697Z,46.50
2018-04-10T17:05:16.497Z,47.43
2018-04-10T17:07:44.307Z,47.54
2018-04-10T17:10:11.891Z,47.99
2018-04-10T17:12:40.361Z,48.37
2018-04-10T17:15:07.964Z,48.11
2018-04-10T17:17:35.544Z,48.87
2018-04-10T17:20:03.400Z,48.89
2018-04-10T17:22:31.034Z,48.75
2018-04-10T17:24:58.677Z,48.52
2018-04-10T17:27:26.324Z,48.27
2018-04-10T17:29:53.950Z,49.45
2018-04-10T17:32:21.599Z,49.57
2018-04-10T17:34:49.207Z,49.00
2018-04-10T17:37:16.823Z,49.19
2018-04-10T17:39:44.420Z,48.94
2018-04-10T17:42:12.209Z,48.60
2018-04-10T17:44:39.846Z,48.93
2018-04-10T17:47:07.431Z,49.48
2018-04-10T17:49:35.689Z,48.84
2018-04-10T17:52:03.269Z,49.54
2018-04-10T17:54:30.944Z,49.10
2018-04-10T17:56:58.676Z,49.51
2018-04-10T17:59:26.325Z,49.75
2018-04-10T18:01:53.964Z,49.98
2018-04-10T18:04:21.656Z,50.21
2018-04-10T18:06:49.229Z,50.26
2018-04-10T18:09:16.805Z,48.62
2018-04-10T18:11:44.552Z,50.00
2018-04-10T18:14:12.182Z,49.87
2018-04-10T18:16:39.764Z,49.60
2018-04-10T18:19:07.915Z,49.50
2018-04-10T18:21:35.493Z,49.69
2018-04-10T18:24:03.077Z,49.36
2018-04-10T18:26:30.781Z,49.53
2018-04-10T18:28:58.363Z,49.03
2018-04-10T18:31:26.181Z,49.50
2018-04-10T18:33:54.126Z,50.12
2018-04-10T18:36:21.816Z,49.48
2018-04-10T18:38:49.399Z,49.82
2018-04-10T18:41:17.145Z,49.04
2018-04-10T18:43:44.789Z,49.04
2018-04-10T18:46:12.371Z,49.91
2018-04-10T18:48:40.001Z,47.26
2018-04-10T18:51:07.581Z,47.15
2018-04-10T18:53:35.191Z,47.69
2018-04-10T18:56:02.832Z,47.61
2018-04-10T18:58:30.415Z,46.88
2018-04-10T19:00:58.004Z,47.04
2018-04-10T19:03:25.654Z,47.17
2018-04-10T19:05:53.241Z,47.94
2018-04-10T19:08:20.819Z,47.43
2018-04-10T19:10:48.532Z,48.52
2018-04-10T19:13:16.217Z,47.21
2018-04-10T19:15:43.867Z,48.04
2018-04-10T19:18:11.605Z,48.59
2018-04-10T19:20:39.223Z,48.04
2018-04-10T19:23:06.820Z,48.95
2018-04-10T19:25:34.472Z,49.63
2018-04-10T19:28:02.161Z,49.81
2018-04-10T19:30:30.612Z,50.62
2018-04-10T19:32:58.307Z,50.72
2018-04-10T19:35:26.058Z,50.19
2018-04-10T19:37:53.631Z,49.90
2018-04-10T19:40:21.656Z,49.88
2018-04-10T19:42:49.295Z,49.89
2018-04-10T19:45:16.958Z,49.99
2018-04-10T19:47:44.601Z,49.97
2018-04-10T19:50:12.321Z,49.53
2018-04-10T19:52:39.924Z,49.91
2018-04-10T19:55:07.641Z,49.76
2018-04-10T19:57:35.284Z,49.43
2018-04-10T20:00:02.860Z,49.54
2018-04-10T20:02:30.500Z,49.76
2018-04-10T20:04:58.145Z,49.66
2018-04-10T20:07:25.714Z,49.62
2018-04-10T20:09:53.355Z,49.29
2018-04-10T20:12:20.928Z,49.44
2018-04-10T20:14:48.528Z,50.05
2018-04-10T20:17:16.248Z,49.74
2018-04-10T20:19:43.869Z,49.87
2018-04-10T20:22:11.473Z,49.90
2018-04-10T20:24:39.185Z,50.10
2018-04-10T20:27:06.833Z,50.73
2018-04-10T20:29:34.402Z,50.60
2018-04-10T20:32:02.094Z,50.68
2018-04-10T20:34:29.713Z,50.85
2018-04-10T20:36:57.367Z,50.37
2018-04-10T20:39:25.136Z,50.55
2018-04-10T20:41:52.714Z,50.67
2018-04-10T20:44:20.319Z,50.69
2018-04-10T20:46:48.078Z,50.86
2018-04-10T20:49:15.667Z,50.56
2018-04-10T20:51:43.297Z,50.52
2018-04-10T20:54:10.981Z,50.44
2018-04-10T20:56:38.564Z,50.30
2018-04-10T20:59:06.152Z,50.35
2018-04-10T21:01:33.868Z,50.76
2018-04-10T21:04:01.448Z,50.28
2018-04-10T21:06:29.072Z,50.38
2018-04-10T21:08:56.697Z,50.14
2018-04-10T21:11:24.308Z,50.15
2018-04-10T21:13:51.940Z,50.56
2018-04-10T21:16:19.731Z,50.41
2018-04-10T21:18:47.296Z,50.24
2018-04-10T21:21:14.929Z,50.05
2018-04-10T21:23:42.652Z,50.76
2018-04-10T21:26:10.285Z,50.77
2018-04-10T21:28:37.912Z,51.53
2018-04-10T21:31:05.602Z,52.62
2018-04-10T21:33:33.260Z,52.34
2018-04-10T21:36:00.833Z,52.83
2018-04-10T21:38:28.537Z,53.01
2018-04-10T21:40:56.156Z,52.69
2018-04-10T21:43:29.480Z,53.39
2018-04-10T21:45:57.122Z,53.65
2018-04-10T21:48:24.768Z,53.88
2018-04-10T21:50:52.577Z,54.53
2018-04-10T21:53:20.212Z,55.19
2018-04-10T21:55:47.806Z,55.35
2018-04-10T21:58:15.441Z,55.55
2018-04-10T22:00:43.092Z,55.92
2018-04-10T22:03:10.703Z,55.44
2018-04-10T22:05:38.348Z,55.82
2018-04-10T22:08:05.992Z,55.52
2018-04-10T22:10:33.563Z,54.93
2018-04-10T22:13:01.185Z,55.87
2018-04-10T22:15:28.774Z,56.05
2018-04-10T22:17:56.444Z,56.12
2018-04-10T22:20:24.221Z,56.54
2018-04-10T22:22:51.780Z,57.07
2018-04-10T22:25:19.420Z,56.99
2018-04-10T22:27:47.132Z,57.07
2018-04-10T22:30:14.718Z,57.26
2018-04-10T22:32:42.257Z,57.61
2018-04-10T22:35:09.882Z,57.59
2018-04-10T22:37:37.513Z,58.29
2018-04-10T22:40:05.265Z,58.90
2018-04-10T22:42:32.892Z,58.73
2018-04-10T22:45:00.531Z,58.44
2018-04-10T22:47:28.095Z,58.94
2018-04-10T22:49:55.834Z,59.18
2018-04-10T22:52:23.465Z,59.67
2018-04-10T22:54:51.080Z,59.95
2018-04-10T22:57:18.757Z,59.72
2018-04-10T22:59:46.389Z,60.22
2018-04-10T23:02:13.963Z,60.04
2018-04-10T23:04:41.754Z,60.11
2018-04-10T23:07:09.344Z,60.28
2018-04-10T23:09:36.988Z,60.46
2018-04-10T23:12:04.660Z,60.54
2018-04-10T23:14:32.295Z,60.97
2018-04-10T23:16:59.914Z,60.92
2018-04-10T23:19:27.702Z,60.68
2018-04-10T23:21:55.327Z,60.70
2018-04-10T23:24:22.932Z,60.93
2018-04-10T23:26:50.693Z,60.74
2018-04-10T23:29:18.321Z,59.93
2018-04-10T23:31:45.883Z,59.55
2018-04-10T23:34:13.514Z,59.37
2018-04-10T23:36:41.133Z,59.06
2018-04-10T23:39:08.716Z,58.63
2018-04-10T23:41:36.812Z,58.64
2018-04-10T23:44:04.416Z,58.79
2018-04-10T23:46:31.987Z,59.00
2018-04-10T23:48:59.598Z,58.03
2018-04-10T23:51:27.166Z,57.93
2018-04-10T23:53:54.734Z,57.82
2018-04-10T23:56:22.445Z,57.05
2018-04-10T23:58:50.012Z,58.01
